Time;durP1;ratioP1;P1;durP2;ratioP2;P2;SDS_P1;SDS_P2;PMS_P1;PMS_P2;Temp;Humidity;BMP_temperature;BMP_pressure;BME280_temperature;BME280_humidity;BME280_pressure;Samples;Min_cycle;Max_cycle;Signal;HPM_P1;HPM_P2
2023/08/20 00:03:57;;;;;;;4.53;3.00;;;;;;;;;;10453642;28;20029;-57
2023/08/20 00:08:58;;;;;;;8.70;3.20;;;;;;;;;;10453831;28;20033;-54
2023/08/20 00:13:58;;;;;;;8.13;3.53;;;;;;;;;;10453377;28;20032;-59
2023/08/20 00:18:59;;;;;;;5.50;3.30;;;;;;;;;;10453450;28;20454;-58
2023/08/20 00:24:08;;;;;;;3.30;3.00;;;;;;;;;;10452784;28;20148;-54
2023/08/20 00:29:14;;;;;;;3.63;3.00;;;;;;;;;;10452921;28;20033;-55
2023/08/20 00:34:15;;;;;;;7.55;3.20;;;;;;;;;;10453204;28;20102;-57
2023/08/20 00:39:15;;;;;;;6.25;3.05;;;;;;;;;;10452486;28;20099;-56
2023/08/20 00:44:16;;;;;;;4.90;2.90;;;;;;;;;;10452550;28;20025;-55
2023/08/20 00:49:16;;;;;;;3.47;2.73;;;;;;;;;;10451264;28;20135;-56
2023/08/20 00:54:16;;;;;;;3.08;2.88;;;;;;;;;;10452105;28;20021;-58
2023/08/20 00:59:17;;;;;;;5.03;3.20;;;;;;;;;;10451576;28;20025;-56
2023/08/20 01:04:17;;;;;;;3.63;2.90;;;;;;;;;;10451372;28;20517;-57
2023/08/20 01:09:33;;;;;;;2.95;2.72;;;;;;;;;;10451326;28;20491;-57
2023/08/20 01:14:33;;;;;;;6.13;3.22;;;;;;;;;;10449627;28;20036;-57
2023/08/20 01:19:34;;;;;;;3.83;3.10;;;;;;;;;;10450849;28;20033;-50
2023/08/20 01:25:16;;;;;;;6.47;2.97;;;;;;;;;;10449431;28;20104;-49
2023/08/20 01:30:18;;;;;;;3.85;2.88;;;;;;;;;;10448330;28;20124;-51
2023/08/20 01:35:18;;;;;;;3.20;2.90;;;;;;;;;;10448645;28;20041;-54
2023/08/20 01:40:19;;;;;;;6.25;3.00;;;;;;;;;;10449901;28;20064;-58
2023/08/20 01:45:19;;;;;;;11.25;2.80;;;;;;;;;;10449982;28;20032;-48
2023/08/20 01:50:19;;;;;;;3.43;3.10;;;;;;;;;;10448845;28;20056;-48
2023/08/20 01:55:20;;;;;;;4.20;2.50;;;;;;;;;;10449952;28;20949;-49
2023/08/20 02:00:20;;;;;;;3.13;2.87;;;;;;;;;;10449373;28;20438;-48
2023/08/20 02:05:20;;;;;;;3.23;2.93;;;;;;;;;;10449158;28;20032;-48
2023/08/20 02:10:21;;;;;;;11.83;3.30;;;;;;;;;;10449391;28;20049;-53
2023/08/20 02:15:21;;;;;;;5.37;2.93;;;;;;;;;;10448623;28;20033;-52
2023/08/20 02:20:22;;;;;;;3.87;3.10;;;;;;;;;;10448803;28;20029;-52
2023/08/20 02:25:24;;;;;;;4.65;2.95;;;;;;;;;;10448862;28;20400;-55
2023/08/20 02:30:24;;;;;;;6.13;3.42;;;;;;;;;;10449252;28;20028;-54
2023/08/20 02:35:25;;;;;;;5.27;2.73;;;;;;;;;;10448567;28;20029;-50
2023/08/20 02:40:25;;;;;;;3.80;2.53;;;;;;;;;;10448602;28;20465;-53
2023/08/20 02:45:26;;;;;;;3.07;2.77;;;;;;;;;;10449246;28;20025;-53
2023/08/20 02:50:26;;;;;;;5.20;3.00;;;;;;;;;;10448543;28;20515;-49
2023/08/20 02:55:26;;;;;;;2.90;2.70;;;;;;;;;;10448619;28;20482;-49
2023/08/20 03:00:27;;;;;;;3.20;2.90;;;;;;;;;;10448495;28;20025;-51
2023/08/20 03:05:28;;;;;;;3.58;3.15;;;;;;;;;;10448633;28;20025;-52
2023/08/20 03:10:28;;;;;;;2.88;2.67;;;;;;;;;;10455101;28;20083;-51
2023/08/20 03:15:29;;;;;;;4.70;3.30;;;;;;;;;;10455180;28;20047;-55
2023/08/20 03:20:31;;;;;;;3.97;3.05;;;;;;;;;;10455249;28;20021;-48
2023/08/20 03:25:31;;;;;;;3.97;3.00;;;;;;;;;;10454431;28;20020;-56
2023/08/20 03:30:31;;;;;;;3.00;2.80;;;;;;;;;;10454871;28;20029;-57
2023/08/20 03:35:32;;;;;;;3.00;2.57;;;;;;;;;;10454522;28;20029;-56
2023/08/20 03:40:32;;;;;;;6.93;2.97;;;;;;;;;;10454456;28;20480;-57
2023/08/20 03:45:32;;;;;;;4.37;2.80;;;;;;;;;;10454266;28;20435;-50
2023/08/20 03:50:33;;;;;;;3.10;2.80;;;;;;;;;;10454018;28;20529;-51
2023/08/20 03:55:33;;;;;;;2.92;2.72;;;;;;;;;;10453585;28;20396;-52
2023/08/20 04:00:35;;;;;;;3.33;3.03;;;;;;;;;;10453442;28;20025;-49
2023/08/20 04:05:38;;;;;;;2.85;2.65;;;;;;;;;;10453696;28;20147;-52
2023/08/20 04:10:44;;;;;;;3.72;3.22;;;;;;;;;;10452741;28;20102;-50
2023/08/20 04:15:44;;;;;;;2.88;2.67;;;;;;;;;;10452079;28;20473;-49
2023/08/20 04:20:45;;;;;;;3.73;2.97;;;;;;;;;;10452317;28;20104;-51
2023/08/20 04:25:46;;;;;;;3.20;2.87;;;;;;;;;;10452374;28;20029;-49
2023/08/20 04:30:46;;;;;;;3.50;2.97;;;;;;;;;;10452610;28;20123;-47
2023/08/20 04:35:50;;;;;;;3.03;2.70;;;;;;;;;;10452778;28;20049;-48
2023/08/20 04:40:50;;;;;;;2.95;2.58;;;;;;;;;;10451991;28;20354;-51
2023/08/20 04:45:50;;;;;;;6.33;2.67;;;;;;;;;;10451856;28;20116;-58
2023/08/20 04:50:51;;;;;;;5.43;2.63;;;;;;;;;;10451976;28;20033;-58
2023/08/20 04:55:51;;;;;;;4.67;2.70;;;;;;;;;;10452122;28;20025;-56
2023/08/20 05:00:52;;;;;;;7.67;2.67;;;;;;;;;;10450990;28;20765;-55
2023/08/20 05:05:52;;;;;;;2.97;2.43;;;;;;;;;;10450826;28;20435;-51
2023/08/20 05:10:52;;;;;;;3.27;2.80;;;;;;;;;;10451369;28;20323;-50
2023/08/20 05:15:53;;;;;;;3.00;2.63;;;;;;;;;;10450694;28;20366;-49
2023/08/20 05:20:53;;;;;;;2.93;2.70;;;;;;;;;;10450817;28;20514;-51
2023/08/20 05:25:53;;;;;;;2.77;2.40;;;;;;;;;;10450931;28;20408;-48
2023/08/20 05:30:56;;;;;;;2.50;2.30;;;;;;;;;;10449821;28;20423;-47
2023/08/20 05:35:56;;;;;;;3.08;2.70;;;;;;;;;;10451462;28;20490;-55
2023/08/20 05:40:56;;;;;;;3.20;2.90;;;;;;;;;;10450454;28;20021;-54
2023/08/20 05:45:57;;;;;;;3.10;2.80;;;;;;;;;;10449406;28;20818;-52
2023/08/20 05:50:58;;;;;;;2.78;2.58;;;;;;;;;;10449811;28;20507;-51
2023/08/20 05:55:59;;;;;;;8.30;2.78;;;;;;;;;;10449491;28;20027;-50
2023/08/20 06:00:59;;;;;;;5.03;3.00;;;;;;;;;;10449537;28;20021;-57
2023/08/20 06:05:59;;;;;;;5.40;3.00;;;;;;;;;;10449278;28;20441;-55
2023/08/20 06:11:00;;;;;;;3.27;2.77;;;;;;;;;;10449431;28;20025;-54
2023/08/20 06:16:00;;;;;;;9.73;3.10;;;;;;;;;;10448941;28;20159;-59
2023/08/20 06:21:00;;;;;;;2.90;2.70;;;;;;;;;;10449232;28;20052;-57
2023/08/20 06:26:01;;;;;;;3.57;3.20;;;;;;;;;;10448607;28;20108;-56
2023/08/20 06:31:01;;;;;;;2.67;2.47;;;;;;;;;;10448616;28;20029;-55
2023/08/20 06:36:01;;;;;;;5.67;2.90;;;;;;;;;;10449546;28;20523;-55
2023/08/20 06:41:02;;;;;;;3.38;2.75;;;;;;;;;;10450755;28;20056;-57
2023/08/20 06:46:02;;;;;;;4.00;2.80;;;;;;;;;;10457037;28;20260;-58
2023/08/20 06:51:19;;;;;;;3.73;2.57;;;;;;;;;;10456546;28;20044;-59
2023/08/20 06:56:19;;;;;;;3.28;2.95;;;;;;;;;;10456608;28;20033;-53
2023/08/20 07:01:20;;;;;;;2.87;2.47;;;;;;;;;;10456192;28;20468;-54
2023/08/20 07:06:20;;;;;;;3.10;2.80;;;;;;;;;;10456132;28;20116;-54
2023/08/20 07:11:21;;;;;;;6.35;2.95;;;;;;;;;;10455919;28;20174;-52
2023/08/20 07:16:21;;;;;;;5.60;3.03;;;;;;;;;;10456337;28;20041;-50
2023/08/20 07:21:22;;;;;;;3.23;2.80;;;;;;;;;;10455532;28;20033;-55
2023/08/20 07:26:23;;;;;;;3.40;3.10;;;;;;;;;;10455561;28;20533;-50
2023/08/20 07:31:27;;;;;;;3.25;2.95;;;;;;;;;;10455600;28;20029;-53
2023/08/20 07:36:28;;;;;;;2.70;2.50;;;;;;;;;;10454792;28;20025;-47
2023/08/20 07:41:28;;;;;;;2.95;2.65;;;;;;;;;;10454896;28;20029;-51
2023/08/20 07:46:29;;;;;;;4.97;3.10;;;;;;;;;;10454521;28;20060;-55
2023/08/20 07:51:29;;;;;;;3.40;3.10;;;;;;;;;;10454641;28;20461;-53
2023/08/20 07:56:30;;;;;;;2.88;2.67;;;;;;;;;;10453683;28;20028;-47
2023/08/20 08:01:30;;;;;;;3.37;3.07;;;;;;;;;;10454198;28;20056;-47
2023/08/20 08:06:30;;;;;;;12.23;2.70;;;;;;;;;;10453652;28;20029;-50
2023/08/20 08:11:31;;;;;;;6.37;3.27;;;;;;;;;;10454162;28;20519;-49
2023/08/20 08:16:31;;;;;;;3.50;2.70;;;;;;;;;;10452600;28;20063;-54
2023/08/20 08:21:31;;;;;;;4.43;2.80;;;;;;;;;;10451204;28;20036;-58
2023/08/20 08:26:33;;;;;;;8.00;3.40;;;;;;;;;;10452440;28;20086;-47
2023/08/20 08:31:34;;;;;;;5.32;2.75;;;;;;;;;;10452644;28;20033;-45
2023/08/20 08:36:39;;;;;;;13.18;3.13;;;;;;;;;;10452443;28;20048;-48
2023/08/20 08:41:41;;;;;;;7.97;3.00;;;;;;;;;;10453188;28;20542;-57
2023/08/20 08:46:42;;;;;;;8.20;3.90;;;;;;;;;;10449887;28;20045;-68
2023/08/20 08:51:45;;;;;;;4.03;3.72;;;;;;;;;;10452248;28;20468;-71
2023/08/20 08:56:45;;;;;;;4.80;4.40;;;;;;;;;;10450269;28;20519;-74
2023/08/20 09:01:46;;;;;;;4.47;4.07;;;;;;;;;;10450994;28;20035;-77
2023/08/20 09:06:48;;;;;;;5.70;3.97;;;;;;;;;;10449100;28;20053;-58
2023/08/20 09:11:48;;;;;;;4.50;4.07;;;;;;;;;;10451336;28;20124;-59
2023/08/20 09:17:01;;;;;;;4.27;3.87;;;;;;;;;;10451449;28;20548;-65
2023/08/20 09:22:02;;;;;;;5.93;4.18;;;;;;;;;;10450864;28;20037;-57
2023/08/20 09:27:05;;;;;;;4.28;3.60;;;;;;;;;;10449358;28;20476;-58
2023/08/20 09:32:06;;;;;;;6.05;4.32;;;;;;;;;;10450719;28;20040;-66
2023/08/20 09:37:10;;;;;;;4.93;4.20;;;;;;;;;;10450822;28;20365;-58
2023/08/20 09:42:11;;;;;;;6.00;4.00;;;;;;;;;;10450246;28;20063;-58
2023/08/20 09:47:13;;;;;;;3.97;3.58;;;;;;;;;;10450162;28;20495;-59
2023/08/20 09:52:22;;;;;;;4.13;3.80;;;;;;;;;;10450492;28;20025;-56
2023/08/20 09:57:33;;;;;;;4.38;3.97;;;;;;;;;;10448579;28;20078;-55
2023/08/20 10:02:34;;;;;;;4.20;3.83;;;;;;;;;;10450355;28;20029;-59
2023/08/20 10:07:35;;;;;;;4.15;3.75;;;;;;;;;;10449253;28;20029;-56
2023/08/20 10:12:36;;;;;;;4.63;3.97;;;;;;;;;;10449695;28;20465;-56
2023/08/20 10:17:38;;;;;;;4.13;3.75;;;;;;;;;;10454428;28;20032;-48
2023/08/20 10:22:40;;;;;;;4.68;4.18;;;;;;;;;;10458565;28;20097;-54
2023/08/20 10:27:45;;;;;;;7.03;4.05;;;;;;;;;;10456147;28;20271;-59
2023/08/20 10:32:52;;;;;;;5.30;4.10;;;;;;;;;;10458160;28;20025;-59
2023/08/20 10:38:18;;;;;;;4.32;3.92;;;;;;;;;;10458183;28;20108;-58
2023/08/20 10:43:27;;;;;;;4.10;3.70;;;;;;;;;;10456521;28;20029;-59
2023/08/20 10:48:28;;;;;;;6.35;4.07;;;;;;;;;;10456442;28;20135;-58
2023/08/20 10:53:29;;;;;;;4.47;3.90;;;;;;;;;;10457272;28;20100;-58
2023/08/20 10:58:30;;;;;;;5.05;3.83;;;;;;;;;;10457305;28;20404;-58
2023/08/20 11:03:33;;;;;;;4.03;3.72;;;;;;;;;;10455382;28;20029;-64
2023/08/20 11:08:34;;;;;;;4.40;4.00;;;;;;;;;;10454488;28;20033;-64
2023/08/20 11:13:35;;;;;;;5.05;4.07;;;;;;;;;;10456268;28;20021;-64
2023/08/20 11:18:35;;;;;;;11.15;4.10;;;;;;;;;;10455450;28;20017;-64
2023/08/20 11:23:38;;;;;;;4.10;3.70;;;;;;;;;;10455415;28;20021;-64
2023/08/20 11:28:45;;;;;;;6.13;4.00;;;;;;;;;;10454737;28;20450;-64
2023/08/20 11:33:47;;;;;;;6.97;4.95;;;;;;;;;;10455228;28;20079;-64
2023/08/20 11:38:52;;;;;;;4.53;4.13;;;;;;;;;;10455266;28;20544;-64
2023/08/20 11:43:53;;;;;;;7.20;4.63;;;;;;;;;;10455353;28;20025;-64
2023/08/20 11:49:05;;;;;;;6.43;4.68;;;;;;;;;;10454432;28;20459;-64
2023/08/20 11:54:16;;;;;;;13.77;4.68;;;;;;;;;;10453825;28;20040;-65
2023/08/20 11:59:19;;;;;;;7.20;4.75;;;;;;;;;;10454298;28;20116;-67
2023/08/20 12:04:23;;;;;;;6.88;4.75;;;;;;;;;;10453115;28;20422;-68
2023/08/20 12:09:24;;;;;;;12.02;4.82;;;;;;;;;;10452924;28;20059;-68
2023/08/20 12:14:24;;;;;;;5.03;4.20;;;;;;;;;;10454147;28;20059;-68
2023/08/20 12:19:25;;;;;;;9.90;4.57;;;;;;;;;;10453939;28;20024;-68
2023/08/20 12:24:25;;;;;;;6.13;4.90;;;;;;;;;;10453571;28;20388;-68
2023/08/20 12:29:26;;;;;;;5.88;4.25;;;;;;;;;;10453524;28;20116;-68
2023/08/20 12:34:26;;;;;;;5.17;4.40;;;;;;;;;;10452738;28;20083;-68
2023/08/20 12:39:27;;;;;;;8.23;4.70;;;;;;;;;;10453008;28;20466;-68
2023/08/20 12:44:27;;;;;;;7.37;4.60;;;;;;;;;;10453038;28;20025;-68
2023/08/20 12:49:27;;;;;;;6.57;4.30;;;;;;;;;;10452492;28;20053;-68
2023/08/20 12:54:28;;;;;;;4.77;4.37;;;;;;;;;;10452538;28;20112;-68
2023/08/20 12:59:28;;;;;;;5.60;4.67;;;;;;;;;;10452979;28;20029;-68
2023/08/20 13:04:29;;;;;;;6.33;4.43;;;;;;;;;;10452163;28;20472;-68
2023/08/20 13:09:29;;;;;;;4.63;4.13;;;;;;;;;;10452503;28;20465;-68
2023/08/20 13:14:30;;;;;;;4.95;4.25;;;;;;;;;;10451783;28;20017;-68
2023/08/20 13:19:31;;;;;;;4.65;4.25;;;;;;;;;;10452115;28;20538;-68
2023/08/20 13:24:31;;;;;;;6.03;4.35;;;;;;;;;;10451412;28;20565;-68
2023/08/20 13:29:32;;;;;;;5.50;4.88;;;;;;;;;;10451154;28;20074;-68
2023/08/20 13:34:32;;;;;;;7.15;4.43;;;;;;;;;;10450854;28;20033;-68
2023/08/20 13:39:33;;;;;;;5.22;4.45;;;;;;;;;;10450831;28;20025;-68
2023/08/20 13:44:33;;;;;;;5.35;4.68;;;;;;;;;;10450505;28;20093;-68
2023/08/20 13:49:33;;;;;;;7.53;4.40;;;;;;;;;;10450046;28;20041;-68
2023/08/20 13:54:35;;;;;;;5.07;4.30;;;;;;;;;;10449766;28;20075;-68
2023/08/20 13:59:35;;;;;;;7.25;5.10;;;;;;;;;;10450285;28;20418;-68
2023/08/20 14:04:36;;;;;;;4.90;4.40;;;;;;;;;;10450441;28;20052;-68
2023/08/20 14:09:39;;;;;;;6.13;4.35;;;;;;;;;;10449926;28;20391;-68
2023/08/20 14:14:39;;;;;;;4.90;4.03;;;;;;;;;;10449865;28;20672;-68
2023/08/20 14:19:40;;;;;;;4.53;4.13;;;;;;;;;;10449833;28;20256;-68
2023/08/20 14:24:40;;;;;;;8.53;4.50;;;;;;;;;;10449644;28;20017;-68
2023/08/20 14:29:41;;;;;;;4.50;4.10;;;;;;;;;;10449668;28;20108;-68
2023/08/20 14:34:42;;;;;;;5.53;4.22;;;;;;;;;;10449824;28;20723;-68
2023/08/20 14:39:42;;;;;;;5.57;4.70;;;;;;;;;;10448153;28;20028;-68
2023/08/20 14:44:42;;;;;;;5.10;4.60;;;;;;;;;;10449280;28;20036;-68
2023/08/20 14:49:43;;;;;;;4.67;4.27;;;;;;;;;;10447682;28;20488;-68
2023/08/20 14:54:43;;;;;;;6.33;4.60;;;;;;;;;;10449613;28;20040;-68
2023/08/20 14:59:44;;;;;;;4.23;3.83;;;;;;;;;;10448982;28;20430;-68
2023/08/20 15:04:44;;;;;;;5.27;4.07;;;;;;;;;;10455050;28;20028;-68
2023/08/20 15:09:44;;;;;;;4.73;4.23;;;;;;;;;;10457251;28;20813;-68
2023/08/20 15:14:45;;;;;;;4.80;4.30;;;;;;;;;;10456877;28;21046;-68
2023/08/20 15:19:45;;;;;;;5.10;4.27;;;;;;;;;;10456223;28;20160;-68
2023/08/20 15:24:46;;;;;;;4.80;4.30;;;;;;;;;;10455913;28;20536;-68
2023/08/20 15:29:46;;;;;;;5.00;4.15;;;;;;;;;;10455569;28;20468;-68
2023/08/20 15:34:47;;;;;;;5.73;4.57;;;;;;;;;;10455499;28;20029;-68
2023/08/20 15:39:47;;;;;;;5.50;4.53;;;;;;;;;;10455309;28;20445;-68
2023/08/20 15:44:48;;;;;;;4.35;3.95;;;;;;;;;;10453721;28;20063;-68
2023/08/20 15:49:48;;;;;;;4.90;4.40;;;;;;;;;;10454575;28;20051;-68
2023/08/20 15:54:49;;;;;;;4.47;4.07;;;;;;;;;;10454802;28;20158;-68
2023/08/20 15:59:49;;;;;;;4.30;3.90;;;;;;;;;;10455221;28;20478;-68
2023/08/20 16:04:49;;;;;;;5.03;4.53;;;;;;;;;;10454433;28;20432;-68
2023/08/20 16:09:50;;;;;;;5.18;4.68;;;;;;;;;;10454248;28;20496;-68
2023/08/20 16:14:50;;;;;;;4.67;4.27;;;;;;;;;;10453279;28;20021;-68
2023/08/20 16:19:51;;;;;;;4.60;4.20;;;;;;;;;;10453921;28;20079;-68
2023/08/20 16:24:51;;;;;;;4.80;4.40;;;;;;;;;;10454079;28;20051;-68
2023/08/20 16:29:52;;;;;;;4.75;4.35;;;;;;;;;;10453466;28;20094;-68
2023/08/20 16:34:52;;;;;;;5.80;4.47;;;;;;;;;;10453603;28;20424;-68
2023/08/20 16:39:53;;;;;;;5.03;4.53;;;;;;;;;;10453714;28;20937;-68
2023/08/20 16:44:53;;;;;;;4.45;4.05;;;;;;;;;;10452701;28;20551;-68
2023/08/20 16:49:53;;;;;;;6.13;4.60;;;;;;;;;;10452500;28;20045;-68
2023/08/20 16:54:54;;;;;;;4.93;4.43;;;;;;;;;;10452329;28;20443;-68
2023/08/20 16:59:55;;;;;;;4.72;4.30;;;;;;;;;;10452238;28;20047;-69
2023/08/20 17:04:55;;;;;;;5.57;4.47;;;;;;;;;;10452343;28;20021;-68
2023/08/20 17:09:56;;;;;;;5.20;4.70;;;;;;;;;;10451828;28;20458;-68
2023/08/20 17:14:57;;;;;;;4.75;4.35;;;;;;;;;;10452070;28;20751;-68
2023/08/20 17:19:57;;;;;;;4.77;4.13;;;;;;;;;;10451539;28;20025;-68
2023/08/20 17:24:57;;;;;;;7.97;4.47;;;;;;;;;;10450464;28;20099;-68
2023/08/20 17:29:58;;;;;;;4.67;4.27;;;;;;;;;;10450952;28;20554;-68
2023/08/20 17:34:58;;;;;;;4.32;3.90;;;;;;;;;;10450718;28;20024;-68
2023/08/20 17:39:59;;;;;;;5.37;4.03;;;;;;;;;;10451009;28;20456;-68
2023/08/20 17:44:59;;;;;;;4.70;4.13;;;;;;;;;;10451053;28;20104;-68
2023/08/20 17:49:59;;;;;;;4.83;4.43;;;;;;;;;;10450302;28;20419;-68
2023/08/20 17:55:00;;;;;;;4.60;4.20;;;;;;;;;;10450834;28;20460;-68
2023/08/20 18:00:00;;;;;;;4.72;4.20;;;;;;;;;;10450728;28;20527;-68
2023/08/20 18:05:03;;;;;;;4.50;4.10;;;;;;;;;;10450340;28;20472;-68
2023/08/20 18:10:04;;;;;;;4.53;4.13;;;;;;;;;;10448768;28;20174;-69
2023/08/20 18:15:05;;;;;;;4.00;3.70;;;;;;;;;;10449610;28;20459;-69
2023/08/20 18:20:08;;;;;;;4.40;4.00;;;;;;;;;;10449765;28;20064;-70
2023/08/20 18:25:09;;;;;;;5.93;4.22;;;;;;;;;;10449347;28;20021;-70
2023/08/20 18:30:11;;;;;;;6.03;4.28;;;;;;;;;;10449781;28;20036;-70
2023/08/20 18:35:11;;;;;;;5.53;4.50;;;;;;;;;;10449509;28;20051;-70
2023/08/20 18:40:12;;;;;;;9.87;4.80;;;;;;;;;;10456796;28;20063;-70
2023/08/20 18:45:12;;;;;;;14.35;6.45;;;;;;;;;;10456468;28;20065;-69
2023/08/20 18:50:12;;;;;;;27.70;9.97;;;;;;;;;;10456702;28;20110;-70
2023/08/20 18:55:13;;;;;;;25.13;9.53;;;;;;;;;;10456147;28;20032;-69
2023/08/20 19:00:14;;;;;;;32.30;9.05;;;;;;;;;;10456391;28;20104;-64
2023/08/20 19:05:14;;;;;;;29.25;10.65;;;;;;;;;;10455841;28;20033;-65
2023/08/20 19:10:15;;;;;;;33.40;10.13;;;;;;;;;;10456529;28;20025;-65
2023/08/20 19:15:16;;;;;;;29.73;10.27;;;;;;;;;;10452949;28;20999;-65
2023/08/20 19:20:16;;;;;;;24.80;9.77;;;;;;;;;;10456101;28;20040;-65
2023/08/20 19:25:17;;;;;;;21.97;9.80;;;;;;;;;;10455360;28;20024;-65
2023/08/20 19:30:17;;;;;;;28.42;10.60;;;;;;;;;;10454961;28;20556;-65
2023/08/20 19:35:18;;;;;;;22.30;9.15;;;;;;;;;;10455907;28;20544;-65
2023/08/20 19:40:18;;;;;;;24.13;9.23;;;;;;;;;;10454730;28;20032;-65
2023/08/20 19:45:18;;;;;;;22.30;9.07;;;;;;;;;;10455060;28;20033;-65
2023/08/20 19:50:19;;;;;;;20.93;8.47;;;;;;;;;;10453125;28;20041;-65
2023/08/20 19:55:19;;;;;;;20.83;8.80;;;;;;;;;;10454238;28;20025;-65
2023/08/20 20:00:19;;;;;;;21.60;9.03;;;;;;;;;;10453945;28;20127;-65
2023/08/20 20:05:21;;;;;;;22.45;9.43;;;;;;;;;;10454328;28;20100;-65
2023/08/20 20:10:21;;;;;;;21.40;8.60;;;;;;;;;;10452623;28;20025;-65
2023/08/20 20:15:21;;;;;;;20.30;8.80;;;;;;;;;;10452855;28;20368;-65
2023/08/20 20:20:22;;;;;;;17.45;7.82;;;;;;;;;;10453086;28;20477;-66
2023/08/20 20:25:23;;;;;;;14.77;8.50;;;;;;;;;;10453380;28;20101;-66
2023/08/20 20:30:24;;;;;;;18.53;7.60;;;;;;;;;;10452372;28;20032;-65
2023/08/20 20:35:24;;;;;;;18.80;8.40;;;;;;;;;;10451196;28;20442;-65
2023/08/20 20:40:24;;;;;;;14.85;7.35;;;;;;;;;;10452001;28;20060;-64
2023/08/20 20:45:25;;;;;;;16.47;8.27;;;;;;;;;;10451702;28;20051;-65
2023/08/20 20:50:25;;;;;;;13.50;7.67;;;;;;;;;;10452353;28;20511;-64
2023/08/20 20:55:25;;;;;;;16.43;7.87;;;;;;;;;;10451584;28;20033;-64
2023/08/20 21:00:26;;;;;;;16.47;8.10;;;;;;;;;;10451177;28;20025;-64
2023/08/20 21:05:26;;;;;;;14.45;7.28;;;;;;;;;;10452288;28;20116;-65
2023/08/20 21:10:27;;;;;;;16.27;7.90;;;;;;;;;;10451807;28;20021;-66
2023/08/20 21:15:27;;;;;;;21.10;9.33;;;;;;;;;;10451179;28;20033;-62
2023/08/20 21:20:27;;;;;;;30.07;8.50;;;;;;;;;;10451803;28;20423;-66
2023/08/20 21:25:28;;;;;;;20.02;7.78;;;;;;;;;;10452195;28;20536;-64
2023/08/20 21:30:28;;;;;;;21.05;8.15;;;;;;;;;;10450969;28;20028;-64
2023/08/20 21:35:29;;;;;;;24.67;8.20;;;;;;;;;;10450128;28;20029;-64
2023/08/20 21:40:29;;;;;;;31.20;9.03;;;;;;;;;;10449154;28;20435;-64
2023/08/20 21:45:29;;;;;;;25.25;7.95;;;;;;;;;;10449888;28;20066;-64
2023/08/20 21:50:30;;;;;;;18.20;7.30;;;;;;;;;;10450052;28;20041;-64
2023/08/20 21:55:30;;;;;;;15.90;7.00;;;;;;;;;;10450718;28;20108;-64
2023/08/20 22:00:31;;;;;;;19.65;7.40;;;;;;;;;;10449923;28;20040;-64
2023/08/20 22:05:31;;;;;;;17.57;8.03;;;;;;;;;;10449980;28;20221;-64
2023/08/20 22:10:31;;;;;;;21.83;8.35;;;;;;;;;;10449652;28;20458;-64
2023/08/20 22:15:32;;;;;;;15.30;7.53;;;;;;;;;;10449790;28;20025;-64
2023/08/20 22:20:32;;;;;;;17.00;7.13;;;;;;;;;;10450326;28;20108;-62
2023/08/20 22:25:33;;;;;;;16.27;7.57;;;;;;;;;;10449533;28;20024;-61
2023/08/20 22:30:33;;;;;;;13.67;6.97;;;;;;;;;;10449919;28;20033;-62
2023/08/20 22:35:33;;;;;;;15.70;6.60;;;;;;;;;;10449881;28;20059;-61
2023/08/20 22:40:35;;;;;;;11.17;6.10;;;;;;;;;;10449828;28;20102;-64
2023/08/20 22:45:36;;;;;;;14.40;7.93;;;;;;;;;;10449294;28;20925;-64
2023/08/20 22:50:36;;;;;;;16.30;6.43;;;;;;;;;;10448584;28;20056;-64
2023/08/20 22:55:37;;;;;;;17.00;6.73;;;;;;;;;;10448629;28;20446;-65
2023/08/20 23:00:37;;;;;;;11.95;5.75;;;;;;;;;;10449245;28;20120;-65
2023/08/20 23:05:38;;;;;;;14.70;6.30;;;;;;;;;;10449420;28;20435;-65
2023/08/20 23:10:38;;;;;;;10.15;5.82;;;;;;;;;;10448917;28;20175;-65
2023/08/20 23:15:38;;;;;;;16.77;5.80;;;;;;;;;;10449281;28;20025;-65
2023/08/20 23:20:39;;;;;;;11.13;5.97;;;;;;;;;;10449253;28;20536;-64
2023/08/20 23:25:39;;;;;;;10.40;5.97;;;;;;;;;;10452997;28;20033;-64
2023/08/20 23:30:43;;;;;;;12.32;6.35;;;;;;;;;;10455777;28;20060;-64
2023/08/20 23:35:44;;;;;;;12.30;5.95;;;;;;;;;;10455743;28;20391;-64
2023/08/20 23:40:44;;;;;;;14.20;5.53;;;;;;;;;;10455169;28;20027;-64
2023/08/20 23:45:44;;;;;;;8.93;6.13;;;;;;;;;;10455026;28;20116;-64
2023/08/20 23:50:45;;;;;;;12.73;5.57;;;;;;;;;;10455028;28;20049;-65
2023/08/20 23:55:45;;;;;;;10.23;6.13;;;;;;;;;;10454988;28;20273;-66
